createdAt,value
2018-04-08T00:00:24.249Z,60.52
2018-04-08T00:01:24.267Z,60.52
2018-04-08T00:02:24.281Z,60.33
2018-04-08T00:03:24.316Z,60.71
2018-04-08T00:04:24.330Z,60.90
2018-04-08T00:05:24.353Z,60.80
2018-04-08T00:06:24.367Z,60.80
2018-04-08T00:07:24.393Z,60.80
2018-04-08T00:08:24.415Z,61.28
2018-04-08T00:09:24.440Z,61.09
2018-04-08T00:10:24.458Z,61.09
2018-04-08T00:11:24.481Z,61.47
2018-04-08T00:12:24.499Z,61.28
2018-04-08T00:13:24.527Z,60.99
2018-04-08T00:14:24.540Z,60.87
2018-04-08T00:15:24.565Z,61.16
2018-04-08T00:16:24.590Z,60.87
2018-04-08T00:17:24.610Z,60.96
2018-04-08T00:18:24.635Z,61.06
2018-04-08T00:19:24.653Z,61.47
2018-04-08T00:20:24.676Z,61.72
2018-04-08T00:21:24.696Z,61.72
2018-04-08T00:22:24.723Z,61.44
2018-04-08T00:23:24.735Z,61.44
2018-04-08T00:24:24.765Z,61.25
2018-04-08T00:25:24.780Z,60.77
2018-04-08T00:26:24.807Z,61.06
2018-04-08T00:27:24.829Z,61.54
2018-04-08T00:28:24.840Z,61.44
2018-04-08T00:29:24.869Z,61.44
2018-04-08T00:30:24.888Z,61.25
2018-04-08T00:31:24.912Z,61.54
2018-04-08T00:32:24.936Z,61.25
2018-04-08T00:33:24.959Z,61.25
2018-04-08T00:34:24.976Z,61.63
2018-04-08T00:35:25.002Z,61.72
2018-04-08T00:36:25.014Z,61.92
2018-04-08T00:37:25.042Z,62.11
2018-04-08T00:38:25.063Z,61.92
2018-04-08T00:39:25.087Z,62.78
2018-04-08T00:40:25.103Z,62.68
2018-04-08T00:41:25.121Z,62.59
2018-04-08T00:42:25.154Z,62.87
2018-04-08T00:43:25.170Z,63.26
2018-04-08T00:44:25.224Z,62.59
2018-04-08T00:45:25.209Z,62.68
2018-04-08T00:46:25.233Z,63.16
2018-04-08T00:47:25.253Z,63.16
2018-04-08T00:48:25.277Z,63.07
2018-04-08T00:49:25.292Z,62.78
2018-04-08T00:50:25.326Z,62.68
2018-04-08T00:51:25.336Z,62.97
2018-04-08T00:52:25.364Z,62.87
2018-04-08T00:53:25.385Z,62.87
2018-04-08T00:54:25.418Z,62.78
2018-04-08T00:55:25.426Z,62.78
2018-04-08T00:56:25.451Z,62.40
2018-04-08T00:57:25.473Z,62.21
2018-04-08T00:58:25.492Z,62.40
2018-04-08T00:59:25.542Z,62.21
2018-04-08T01:00:25.528Z,62.30
2018-04-08T01:01:25.549Z,61.92
2018-04-08T01:02:25.579Z,61.92
2018-04-08T01:03:25.593Z,61.54
2018-04-08T01:04:25.621Z,61.44
2018-04-08T01:05:25.638Z,61.82
2018-04-08T01:06:25.661Z,61.92
2018-04-08T01:07:25.680Z,61.54
2018-04-08T01:08:25.707Z,61.54
2018-04-08T01:09:25.722Z,61.44
2018-04-08T01:10:25.741Z,61.35
2018-04-08T01:11:25.766Z,61.35
2018-04-08T01:12:25.784Z,61.44
2018-04-08T01:13:25.811Z,62.40
2018-04-08T01:14:25.830Z,62.49
2018-04-08T01:15:25.848Z,62.68
2018-04-08T01:16:25.877Z,62.97
2018-04-08T01:17:25.894Z,62.68
2018-04-08T01:18:25.917Z,62.30
2018-04-08T01:19:25.936Z,63.16
2018-04-08T01:20:25.960Z,63.35
2018-04-08T01:21:25.976Z,63.35
2018-04-08T01:22:26.007Z,63.54
2018-04-08T01:23:26.019Z,63.83
2018-04-08T01:24:26.052Z,63.89
2018-04-08T01:25:26.067Z,63.42
2018-04-08T01:26:26.090Z,63.99
2018-04-08T01:27:26.104Z,63.99
2018-04-08T01:28:26.127Z,63.51
2018-04-08T01:29:26.147Z,63.51
2018-04-08T01:30:26.172Z,64.18
2018-04-08T01:31:26.192Z,63.80
2018-04-08T01:32:26.216Z,64.75
2018-04-08T01:33:26.230Z,64.94
2018-04-08T01:34:26.260Z,65.33
2018-04-08T01:35:26.274Z,65.80
2018-04-08T01:36:26.302Z,65.04
2018-04-08T01:37:26.319Z,65.42
2018-04-08T01:38:26.343Z,65.04
2018-04-08T01:39:26.368Z,64.94
2018-04-08T01:40:26.384Z,65.04
2018-04-08T01:41:26.402Z,65.04
2018-04-08T01:42:26.428Z,65.42
2018-04-08T01:43:26.446Z,65.52
2018-04-08T01:44:26.464Z,65.42
2018-04-08T01:45:26.490Z,65.23
2018-04-08T01:46:26.510Z,64.85
2018-04-08T01:47:26.528Z,64.94
2018-04-08T01:48:26.559Z,64.28
2018-04-08T01:49:26.579Z,64.56
2018-04-08T01:50:26.591Z,63.89
2018-04-08T01:51:26.615Z,63.51
2018-04-08T01:52:26.639Z,63.23
2018-04-08T01:53:26.661Z,63.51
2018-04-08T01:54:26.678Z,63.42
2018-04-08T01:55:26.697Z,63.60
2018-04-08T01:56:26.725Z,63.70
2018-04-08T01:57:26.744Z,63.60
2018-04-08T01:58:26.762Z,63.32
2018-04-08T01:59:26.786Z,63.23
2018-04-08T02:00:26.812Z,62.65
2018-04-08T02:01:26.832Z,62.65
2018-04-08T02:02:26.852Z,62.46
2018-04-08T02:03:26.875Z,62.08
2018-04-08T02:04:26.886Z,62.08
2018-04-08T02:05:26.907Z,61.98
2018-04-08T02:06:26.937Z,61.98
2018-04-08T02:07:26.955Z,62.18
2018-04-08T02:08:26.973Z,61.98
2018-04-08T02:09:26.995Z,62.08
2018-04-08T02:10:27.019Z,62.18
2018-04-08T02:11:27.042Z,62.46
2018-04-08T02:12:27.054Z,62.55
2018-04-08T02:13:27.134Z,62.75
2018-04-08T02:14:27.108Z,63.13
2018-04-08T02:15:27.122Z,63.42
2018-04-08T02:16:27.138Z,63.51
2018-04-08T02:17:27.163Z,63.89
2018-04-08T02:18:27.188Z,63.70
2018-04-08T02:19:27.231Z,63.76
2018-04-08T02:20:27.225Z,64.62
2018-04-08T02:21:27.249Z,63.57
2018-04-08T02:22:27.264Z,64.34
2018-04-08T02:23:27.288Z,64.25
2018-04-08T02:24:27.318Z,64.43
2018-04-08T02:25:27.333Z,64.15
2018-04-08T02:26:27.351Z,63.76
2018-04-08T02:27:27.369Z,63.96
2018-04-08T02:28:27.398Z,63.67
2018-04-08T02:29:27.411Z,64.81
2018-04-08T02:30:27.441Z,64.43
2018-04-08T02:31:27.461Z,63.86
2018-04-08T02:32:27.481Z,63.67
2018-04-08T02:33:27.503Z,63.67
2018-04-08T02:34:27.517Z,63.96
2018-04-08T02:35:27.540Z,64.05
2018-04-08T02:36:27.563Z,64.43
2018-04-08T02:37:27.579Z,64.05
2018-04-08T02:38:27.608Z,63.96
2018-04-08T02:39:27.621Z,63.76
2018-04-08T02:40:27.657Z,63.76
2018-04-08T02:41:27.665Z,64.15
2018-04-08T02:42:27.689Z,64.34
2018-04-08T02:43:27.707Z,64.53
2018-04-08T02:44:27.730Z,64.91
2018-04-08T02:45:27.749Z,64.62
2018-04-08T02:46:27.774Z,64.81
2018-04-08T02:47:27.791Z,64.81
2018-04-08T02:48:27.814Z,64.62
2018-04-08T02:49:27.828Z,64.81
2018-04-08T02:50:27.866Z,65.39
2018-04-08T02:51:27.872Z,65.96
2018-04-08T02:52:27.900Z,65.67
2018-04-08T02:53:27.915Z,65.77
2018-04-08T02:54:27.939Z,66.06
2018-04-08T02:55:27.957Z,65.87
2018-04-08T02:56:27.979Z,66.15
2018-04-08T02:57:27.997Z,66.12
2018-04-08T02:58:28.026Z,66.50
2018-04-08T02:59:28.037Z,65.64
2018-04-08T03:00:28.067Z,65.96
2018-04-08T03:01:28.082Z,66.31
2018-04-08T03:02:28.108Z,65.74
2018-04-08T03:03:28.124Z,66.50
2018-04-08T03:04:28.150Z,66.50
2018-04-08T03:05:28.165Z,66.78
2018-04-08T03:06:28.189Z,66.41
2018-04-08T03:07:28.208Z,67.17
2018-04-08T03:08:28.230Z,66.60
2018-04-08T03:09:28.252Z,66.98
2018-04-08T03:10:28.269Z,66.41
2018-04-08T03:11:28.289Z,66.22
2018-04-08T03:12:28.315Z,66.02
2018-04-08T03:13:28.337Z,66.12
2018-04-08T03:14:28.350Z,65.93
2018-04-08T03:15:28.373Z,66.31
2018-04-08T03:16:28.395Z,66.41
2018-04-08T03:17:28.420Z,66.12
2018-04-08T03:18:28.437Z,66.41
2018-04-08T03:19:28.457Z,66.31
2018-04-08T03:20:28.474Z,66.50
2018-04-08T03:21:28.495Z,66.50
2018-04-08T03:22:28.524Z,66.69
2018-04-08T03:23:28.541Z,66.12
2018-04-08T03:24:28.558Z,66.50
2018-04-08T03:25:28.584Z,66.41
2018-04-08T03:26:28.606Z,66.12
2018-04-08T03:27:28.622Z,65.74
2018-04-08T03:28:28.645Z,66.12
2018-04-08T03:29:28.663Z,66.31
2018-04-08T03:30:28.690Z,66.41
2018-04-08T03:31:28.702Z,66.50
2018-04-08T03:32:28.754Z,65.83
2018-04-08T03:33:28.742Z,66.12
2018-04-08T03:34:28.767Z,66.50
2018-04-08T03:35:28.791Z,66.41
2018-04-08T03:36:28.812Z,66.02
2018-04-08T03:37:28.834Z,66.12
2018-04-08T03:38:28.845Z,65.83
2018-04-08T03:39:28.870Z,66.12
2018-04-08T03:40:28.892Z,66.02
2018-04-08T03:41:28.918Z,65.93
2018-04-08T03:42:28.933Z,65.64
2018-04-08T03:43:28.956Z,65.45
2018-04-08T03:44:28.972Z,65.26
2018-04-08T03:45:29.002Z,65.74
2018-04-08T03:46:29.010Z,65.64
2018-04-08T03:47:29.040Z,65.36
2018-04-08T03:48:29.059Z,65.55
2018-04-08T03:49:29.077Z,65.74
2018-04-08T03:50:29.100Z,65.36
2018-04-08T03:51:29.119Z,65.17
2018-04-08T03:52:29.141Z,65.55
2018-04-08T03:53:29.154Z,65.45
2018-04-08T03:54:29.184Z,66.02
2018-04-08T03:55:29.196Z,65.93
2018-04-08T03:56:29.225Z,66.02
2018-04-08T03:57:29.241Z,65.93
2018-04-08T03:58:29.265Z,66.02
2018-04-08T03:59:29.288Z,66.22
2018-04-08T04:00:29.304Z,66.12
2018-04-08T04:01:29.321Z,66.22
2018-04-08T04:02:29.350Z,66.50
2018-04-08T04:03:29.368Z,65.93
2018-04-08T04:04:29.386Z,65.93
2018-04-08T04:05:29.403Z,66.22
2018-04-08T04:06:29.435Z,65.45
2018-04-08T04:07:29.447Z,65.74
2018-04-08T04:08:29.473Z,65.55
2018-04-08T04:09:29.489Z,65.17
2018-04-08T04:10:29.513Z,64.34
2018-04-08T04:11:29.531Z,64.69
2018-04-08T04:12:29.554Z,64.40
2018-04-08T04:13:29.573Z,64.59
2018-04-08T04:14:29.589Z,64.69
2018-04-08T04:15:29.621Z,64.31
2018-04-08T04:16:29.629Z,64.25
2018-04-08T04:17:29.657Z,64.62
2018-04-08T04:18:29.676Z,64.21
2018-04-08T04:19:29.696Z,63.76
2018-04-08T04:20:29.714Z,63.92
2018-04-08T04:21:29.733Z,63.57
2018-04-08T04:22:29.762Z,63.57
2018-04-08T04:23:29.775Z,63.26
2018-04-08T04:24:29.803Z,63.64
2018-04-08T04:25:29.819Z,63.92
2018-04-08T04:26:29.844Z,63.83
2018-04-08T04:27:29.859Z,64.31
2018-04-08T04:28:29.882Z,64.21
2018-04-08T04:29:29.903Z,64.59
2018-04-08T04:30:29.927Z,64.59
2018-04-08T04:31:29.940Z,64.69
2018-04-08T04:32:29.970Z,64.78
2018-04-08T04:33:29.982Z,65.07
2018-04-08T04:34:30.007Z,64.69
2018-04-08T04:35:30.031Z,64.40
2018-04-08T04:36:30.047Z,65.17
2018-04-08T04:37:30.070Z,64.88
2018-04-08T04:38:30.089Z,64.97
2018-04-08T04:39:30.107Z,65.17
2018-04-08T04:40:30.130Z,65.55
2018-04-08T04:41:30.151Z,65.45
2018-04-08T04:42:30.170Z,64.97
2018-04-08T04:43:30.191Z,65.55
2018-04-08T04:44:30.216Z,65.26
2018-04-08T04:45:30.254Z,65.45
2018-04-08T04:46:30.254Z,65.36
2018-04-08T04:47:30.277Z,65.26
2018-04-08T04:48:30.289Z,65.07
2018-04-08T04:49:30.311Z,65.55
2018-04-08T04:50:30.334Z,65.36
2018-04-08T04:51:30.353Z,65.45
2018-04-08T04:52:30.373Z,65.55
2018-04-08T04:53:30.392Z,65.26
2018-04-08T04:54:30.423Z,65.55
2018-04-08T04:55:30.436Z,65.55
2018-04-08T04:56:30.461Z,65.64
2018-04-08T04:57:30.477Z,65.45
2018-04-08T04:58:30.500Z,64.59
2018-04-08T04:59:30.519Z,65.45
2018-04-08T05:00:30.541Z,64.59
2018-04-08T05:01:30.562Z,64.40
2018-04-08T05:02:30.581Z,64.12
2018-04-08T05:03:30.604Z,64.97
2018-04-08T05:04:30.623Z,64.78
2018-04-08T05:05:30.652Z,64.40
2018-04-08T05:06:30.666Z,63.64
2018-04-08T05:07:30.683Z,63.54
2018-04-08T05:08:30.700Z,63.83
2018-04-08T05:09:30.724Z,63.45
2018-04-08T05:10:30.747Z,63.26
2018-04-08T05:11:30.766Z,63.45
2018-04-08T05:12:30.788Z,63.39
2018-04-08T05:13:30.805Z,63.29
2018-04-08T05:14:30.833Z,63.39
2018-04-08T05:15:30.845Z,63.10
2018-04-08T05:16:30.873Z,62.71
2018-04-08T05:17:30.895Z,63.39
2018-04-08T05:18:30.907Z,62.81
2018-04-08T05:19:30.935Z,62.91
2018-04-08T05:20:30.954Z,62.71
2018-04-08T05:21:30.974Z,62.81
2018-04-08T05:22:30.991Z,62.52
2018-04-08T05:23:31.011Z,63.10
2018-04-08T05:24:31.034Z,63.29
2018-04-08T05:25:31.057Z,63.10
2018-04-08T05:26:31.075Z,63.10
2018-04-08T05:27:31.098Z,62.05
2018-04-08T05:28:31.117Z,61.86
2018-04-08T05:29:31.145Z,61.86
2018-04-08T05:30:31.156Z,61.76
2018-04-08T05:31:31.188Z,61.57
2018-04-08T05:32:31.195Z,61.47
2018-04-08T05:33:31.223Z,61.22
2018-04-08T05:34:31.246Z,60.93
2018-04-08T05:35:31.259Z,60.93
2018-04-08T05:36:31.290Z,60.64
2018-04-08T05:37:31.304Z,61.41
2018-04-08T05:38:31.327Z,60.36
2018-04-08T05:39:31.355Z,60.17
2018-04-08T05:40:31.369Z,60.36
2018-04-08T05:41:31.387Z,60.64
2018-04-08T05:42:31.414Z,60.36
2018-04-08T05:43:31.431Z,60.55
2018-04-08T05:44:31.451Z,59.69
2018-04-08T05:45:31.468Z,59.88
2018-04-08T05:46:31.496Z,60.36
2018-04-08T05:47:31.510Z,59.59
2018-04-08T05:48:31.537Z,59.31
2018-04-08T05:49:31.554Z,58.67
2018-04-08T05:50:31.578Z,59.50
2018-04-08T05:51:31.597Z,59.31
2018-04-08T05:52:31.613Z,58.95
2018-04-08T05:53:31.635Z,58.86
2018-04-08T05:54:31.658Z,58.76
2018-04-08T05:55:31.679Z,58.58
2018-04-08T05:56:31.704Z,58.54
2018-04-08T05:57:31.723Z,59.05
2018-04-08T05:58:31.743Z,59.05
2018-04-08T05:59:31.765Z,59.22
2018-04-08T06:00:31.781Z,59.69
2018-04-08T06:01:31.810Z,59.69
2018-04-08T06:02:31.823Z,59.69
2018-04-08T06:03:31.853Z,60.36
2018-04-08T06:04:31.865Z,60.64
2018-04-08T06:05:31.894Z,60.93
2018-04-08T06:06:31.910Z,60.36
2018-04-08T06:07:31.929Z,60.27
2018-04-08T06:08:31.954Z,60.07
2018-04-08T06:09:31.979Z,60.17
2018-04-08T06:10:31.998Z,60.27
2018-04-08T06:11:32.019Z,60.46
2018-04-08T06:12:32.039Z,60.46
2018-04-08T06:13:32.061Z,60.27
2018-04-08T06:14:32.081Z,60.27
2018-04-08T06:15:32.108Z,60.46
2018-04-08T06:16:32.117Z,60.36
2018-04-08T06:17:32.179Z,60.74
2018-04-08T06:18:32.173Z,60.64
2018-04-08T06:19:32.186Z,60.46
2018-04-08T06:20:32.205Z,60.64
2018-04-08T06:21:32.226Z,60.27
2018-04-08T06:22:32.248Z,60.46
2018-04-08T06:23:32.268Z,60.64
2018-04-08T06:24:32.290Z,60.55
2018-04-08T06:25:32.307Z,60.93
2018-04-08T06:26:32.335Z,60.39
2018-04-08T06:27:32.349Z,60.49
2018-04-08T06:28:32.380Z,60.39
2018-04-08T06:29:32.396Z,60.68
2018-04-08T06:30:32.414Z,60.49
2018-04-08T06:31:32.441Z,59.81
2018-04-08T06:32:32.456Z,59.44
2018-04-08T06:33:32.482Z,59.05
2018-04-08T06:34:32.496Z,59.53
2018-04-08T06:35:32.527Z,58.86
2018-04-08T06:36:32.538Z,59.05
2018-04-08T06:37:32.559Z,58.80
2018-04-08T06:38:32.589Z,58.61
2018-04-08T06:39:32.602Z,58.51
2018-04-08T06:40:32.631Z,58.41
2018-04-08T06:41:32.647Z,58.51
2018-04-08T06:42:32.672Z,57.75
2018-04-08T06:43:32.705Z,57.93
2018-04-08T06:44:32.714Z,58.22
2018-04-08T06:45:32.732Z,57.93
2018-04-08T06:46:32.757Z,57.55
2018-04-08T06:47:32.781Z,57.46
2018-04-08T06:48:32.799Z,57.55
2018-04-08T06:49:32.816Z,57.26
2018-04-08T06:50:32.845Z,56.72
2018-04-08T06:51:32.866Z,56.53
2018-04-08T06:52:32.883Z,56.24
2018-04-08T06:53:32.909Z,56.53
2018-04-08T06:54:32.927Z,56.53
2018-04-08T06:55:32.951Z,56.34
2018-04-08T06:56:32.966Z,56.53
2018-04-08T06:57:32.987Z,56.53
2018-04-08T06:58:33.018Z,56.05
2018-04-08T06:59:33.042Z,56.43
2018-04-08T07:00:33.053Z,56.15
2018-04-08T07:01:33.078Z,55.76
2018-04-08T07:02:33.097Z,56.05
2018-04-08T07:03:33.116Z,55.38
2018-04-08T07:04:33.156Z,55.29
2018-04-08T07:05:33.167Z,55.47
2018-04-08T07:06:33.180Z,55.02
2018-04-08T07:07:33.208Z,55.41
2018-04-08T07:08:33.241Z,54.83
2018-04-08T07:09:33.248Z,54.74
2018-04-08T07:10:33.275Z,54.64
2018-04-08T07:11:33.291Z,54.74
2018-04-08T07:12:33.318Z,54.93
2018-04-08T07:13:33.339Z,54.83
2018-04-08T07:14:33.354Z,54.67
2018-04-08T07:15:33.383Z,54.16
2018-04-08T07:16:33.403Z,55.05
2018-04-08T07:17:33.422Z,54.86
2018-04-08T07:18:33.580Z,54.83
2018-04-08T07:19:33.467Z,54.67
2018-04-08T07:20:33.491Z,54.77
2018-04-08T07:21:33.511Z,54.86
2018-04-08T07:22:33.538Z,54.67
2018-04-08T07:23:33.552Z,54.10
2018-04-08T07:24:33.603Z,54.10
2018-04-08T07:25:33.598Z,54.28
2018-04-08T07:26:33.624Z,53.71
2018-04-08T07:27:33.641Z,54.10
2018-04-08T07:28:33.667Z,54.28
2018-04-08T07:29:33.684Z,53.71
2018-04-08T07:30:33.714Z,53.07
2018-04-08T07:31:33.735Z,53.07
2018-04-08T07:32:33.758Z,52.59
2018-04-08T07:33:33.772Z,52.30
2018-04-08T07:34:33.803Z,52.20
2018-04-08T07:35:33.817Z,51.95
2018-04-08T07:36:33.847Z,51.56
2018-04-08T07:37:33.863Z,51.46
2018-04-08T07:38:33.889Z,51.56
2018-04-08T07:39:33.910Z,51.56
2018-04-08T07:40:33.935Z,51.46
2018-04-08T07:41:33.952Z,51.08
2018-04-08T07:42:33.981Z,50.53
2018-04-08T07:43:33.998Z,49.60
2018-04-08T07:44:34.028Z,47.92
2018-04-08T07:45:34.049Z,45.73
2018-04-08T07:46:34.071Z,44.51
2018-04-08T07:47:34.095Z,43.84
2018-04-08T07:48:34.125Z,43.84
2018-04-08T07:49:34.139Z,43.76
2018-04-08T07:50:34.163Z,42.80
2018-04-08T07:51:34.182Z,43.45
2018-04-08T07:52:34.208Z,43.26
2018-04-08T07:53:34.227Z,43.84
2018-04-08T07:54:34.260Z,44.02
2018-04-08T07:55:34.275Z,44.12
2018-04-08T07:56:34.306Z,43.93
2018-04-08T07:57:34.330Z,43.93
2018-04-08T07:58:34.347Z,43.95
2018-04-08T07:59:34.374Z,43.37
2018-04-08T08:00:34.396Z,43.49
2018-04-08T08:01:34.422Z,43.57
2018-04-08T08:02:34.453Z,44.12
2018-04-08T08:03:34.475Z,44.70
2018-04-08T08:04:34.498Z,45.35
2018-04-08T08:05:34.519Z,46.12
2018-04-08T08:06:34.553Z,46.50
2018-04-08T08:07:34.574Z,46.31
2018-04-08T08:08:34.596Z,46.50
2018-04-08T08:09:34.622Z,45.85
2018-04-08T08:10:34.651Z,45.28
2018-04-08T08:11:34.678Z,45.18
2018-04-08T08:12:34.695Z,45.18
2018-04-08T08:13:34.719Z,45.28
2018-04-08T08:14:34.753Z,44.91
2018-04-08T08:15:34.778Z,44.72
2018-04-08T08:16:34.802Z,43.49
2018-04-08T08:17:34.829Z,42.46
2018-04-08T08:18:34.846Z,41.72
2018-04-08T08:19:34.873Z,40.57
2018-04-08T08:20:34.902Z,40.20
2018-04-08T08:21:34.930Z,40.03
2018-04-08T08:22:34.947Z,38.95
2018-04-08T08:23:35.023Z,39.06
2018-04-08T08:24:35.005Z,38.12
2018-04-08T08:25:35.031Z,36.98
2018-04-08T08:26:35.056Z,37.27
2018-04-08T08:27:35.079Z,37.35
2018-04-08T08:28:35.113Z,38.29
2018-04-08T08:29:35.139Z,38.45
2018-04-08T08:30:35.162Z,39.22
2018-04-08T08:31:35.192Z,38.93
2018-04-08T08:32:35.215Z,38.76
2018-04-08T08:33:35.250Z,37.62
2018-04-08T08:34:35.267Z,36.88
2018-04-08T08:35:35.299Z,35.44
2018-04-08T08:36:35.322Z,35.26
2018-04-08T08:37:35.360Z,35.69
2018-04-08T08:38:35.379Z,37.01
2018-04-08T08:39:35.415Z,38.99
2018-04-08T08:40:35.435Z,40.05
2018-04-08T08:41:35.470Z,40.07
2018-04-08T08:42:35.494Z,39.20
2018-04-08T08:43:35.549Z,37.23
2018-04-08T08:44:35.550Z,36.00
2018-04-08T08:45:35.584Z,35.24
2018-04-08T08:46:35.609Z,34.58
2018-04-08T08:47:35.639Z,33.54
2018-04-08T08:48:35.660Z,33.52
2018-04-08T08:49:35.687Z,33.36
2018-04-08T08:50:35.724Z,33.17
2018-04-08T08:51:35.745Z,31.84
2018-04-08T08:52:35.775Z,30.78
2018-04-08T08:53:35.801Z,30.99
2018-04-08T08:54:35.838Z,30.39
2018-04-08T08:55:35.865Z,30.31
2018-04-08T08:56:35.889Z,29.64
2018-04-08T08:57:35.921Z,29.84
2018-04-08T08:58:35.950Z,28.98
2018-04-08T08:59:35.986Z,29.46
2018-04-08T09:00:36.008Z,28.96
2018-04-08T09:01:36.040Z,29.34
2018-04-08T09:02:36.074Z,29.12
2018-04-08T09:03:36.096Z,30.10
2018-04-08T09:04:36.126Z,30.28
2018-04-08T09:05:36.158Z,30.76
2018-04-08T09:06:36.250Z,30.96
2018-04-08T09:07:36.217Z,31.25
2018-04-08T09:08:36.251Z,30.31
2018-04-08T09:09:36.285Z,29.27
2018-04-08T09:10:36.312Z,29.44
2018-04-08T09:11:36.345Z,29.34
2018-04-08T09:12:36.368Z,30.29
2018-04-08T09:13:36.449Z,29.94
2018-04-08T09:14:36.433Z,28.79
2018-04-08T09:15:36.464Z,28.41
2018-04-08T09:16:36.492Z,28.11
2018-04-08T09:17:36.529Z,28.51
2018-04-08T09:18:36.551Z,27.75
2018-04-08T09:19:36.591Z,27.57
2018-04-08T09:20:36.618Z,27.00
2018-04-08T09:21:36.650Z,26.51
2018-04-08T09:22:36.684Z,25.95
2018-04-08T09:23:36.712Z,25.92
2018-04-08T09:24:36.739Z,27.43
2018-04-08T09:25:36.768Z,28.58
2018-04-08T09:26:36.809Z,29.24
2018-04-08T09:27:36.832Z,29.91
2018-04-08T09:28:36.875Z,30.76
2018-04-08T09:29:36.917Z,31.13
2018-04-08T09:30:36.932Z,32.01
2018-04-08T09:31:36.959Z,32.09
2018-04-08T09:32:36.996Z,32.75
2018-04-08T09:33:37.022Z,33.42
2018-04-08T09:34:37.053Z,33.63
2018-04-08T09:35:37.087Z,33.44
2018-04-08T09:36:37.114Z,33.92
2018-04-08T09:37:37.150Z,33.52
2018-04-08T09:38:37.173Z,33.72
2018-04-08T09:39:37.207Z,33.63
2018-04-08T09:40:37.235Z,33.44
2018-04-08T09:41:37.267Z,32.41
2018-04-08T09:42:37.300Z,32.81
2018-04-08T09:43:37.327Z,31.26
2018-04-08T09:44:37.362Z,30.51
2018-04-08T09:45:37.388Z,30.31
2018-04-08T09:46:37.421Z,30.49
2018-04-08T09:47:37.443Z,31.07
2018-04-08T09:48:37.480Z,31.36
2018-04-08T09:49:37.510Z,31.26
2018-04-08T09:50:37.538Z,31.18
2018-04-08T09:51:37.573Z,29.84
2018-04-08T09:52:37.591Z,29.76
2018-04-08T09:53:37.620Z,29.38
2018-04-08T09:54:37.665Z,28.53
2018-04-08T09:55:37.680Z,27.86
2018-04-08T09:56:37.713Z,27.96
2018-04-08T09:57:37.741Z,26.93
2018-04-08T09:58:37.779Z,26.17
2018-04-08T09:59:37.801Z,25.38
2018-04-08T10:00:37.838Z,25.20
2018-04-08T10:01:37.864Z,25.89
2018-04-08T10:02:37.898Z,24.05
2018-04-08T10:03:37.926Z,24.15
2018-04-08T10:04:37.962Z,23.85
2018-04-08T10:05:38.060Z,23.07
2018-04-08T10:06:38.019Z,23.65
2018-04-08T10:07:38.054Z,23.63
2018-04-08T10:08:38.089Z,24.13
2018-04-08T10:09:38.118Z,23.44
2018-04-08T10:10:38.142Z,23.56
2018-04-08T10:11:38.177Z,22.88
2018-04-08T10:12:38.206Z,23.36
2018-04-08T10:13:38.240Z,22.49
2018-04-08T10:14:38.274Z,23.84
2018-04-08T10:15:38.305Z,23.35
2018-04-08T10:16:38.340Z,23.45
2018-04-08T10:17:38.380Z,24.29
2018-04-08T10:18:38.408Z,25.35
2018-04-08T10:19:38.432Z,26.31
2018-04-08T10:20:38.474Z,26.59
2018-04-08T10:21:38.511Z,27.54
2018-04-08T10:22:38.531Z,28.13
2018-04-08T10:23:38.567Z,28.89
2018-04-08T10:24:38.600Z,29.10
2018-04-08T10:25:38.633Z,28.53
2018-04-08T10:26:38.667Z,27.66
2018-04-08T10:27:38.700Z,26.98
2018-04-08T10:28:38.731Z,27.17
2018-04-08T10:29:38.760Z,27.54
2018-04-08T10:30:38.790Z,27.54
2018-04-08T10:31:38.819Z,28.11
2018-04-08T10:32:38.857Z,28.11
2018-04-08T10:33:38.890Z,28.03
2018-04-08T10:34:38.913Z,27.56
2018-04-08T10:35:38.950Z,27.07
2018-04-08T10:36:38.982Z,26.98
2018-04-08T10:37:39.013Z,27.58
2018-04-08T10:38:39.049Z,27.00
2018-04-08T10:39:39.076Z,26.70
2018-04-08T10:40:39.104Z,27.25
2018-04-08T10:41:39.135Z,28.61
2018-04-08T10:42:39.168Z,29.00
2018-04-08T10:43:39.201Z,28.98
2018-04-08T10:44:39.228Z,29.76
2018-04-08T10:45:39.258Z,28.89
2018-04-08T10:46:39.293Z,29.17
2018-04-08T10:47:39.326Z,28.87
2018-04-08T10:48:39.347Z,28.87
2018-04-08T10:49:39.377Z,29.26
2018-04-08T10:50:39.416Z,29.34
2018-04-08T10:51:39.470Z,29.24
2018-04-08T10:52:39.514Z,30.11
2018-04-08T10:53:39.504Z,29.92
2018-04-08T10:54:39.528Z,30.02
2018-04-08T10:55:39.561Z,30.21
2018-04-08T10:56:39.594Z,29.92
2018-04-08T10:57:39.622Z,29.83
2018-04-08T10:58:39.653Z,29.83
2018-04-08T10:59:39.678Z,29.73
2018-04-08T11:00:39.715Z,29.63
2018-04-08T11:01:39.742Z,29.74
2018-04-08T11:02:39.768Z,29.74
2018-04-08T11:03:39.797Z,29.83
2018-04-08T11:04:39.833Z,30.23
2018-04-08T11:05:39.862Z,30.23
2018-04-08T11:06:39.883Z,30.21
2018-04-08T11:07:39.915Z,30.51
2018-04-08T11:08:39.946Z,30.31
2018-04-08T11:09:39.970Z,30.41
2018-04-08T11:10:40.009Z,30.20
2018-04-08T11:11:40.031Z,30.41
2018-04-08T11:12:40.065Z,30.11
2018-04-08T11:13:40.108Z,29.36
2018-04-08T11:14:40.125Z,28.61
2018-04-08T11:15:40.148Z,27.84
2018-04-08T11:16:40.178Z,26.71
2018-04-08T11:17:40.204Z,26.15
2018-04-08T11:18:40.237Z,25.40
2018-04-08T11:19:40.263Z,24.65
2018-04-08T11:20:40.295Z,23.88
2018-04-08T11:21:40.318Z,22.90
2018-04-08T11:22:40.357Z,22.90
2018-04-08T11:23:40.377Z,22.90
2018-04-08T11:24:40.414Z,22.99
2018-04-08T11:25:40.439Z,22.81
2018-04-08T11:26:40.471Z,22.25
2018-04-08T11:27:40.500Z,21.18
2018-04-08T11:28:40.532Z,20.68
2018-04-08T11:29:40.560Z,20.48
2018-04-08T11:30:40.599Z,21.73
2018-04-08T11:31:40.621Z,21.64
2018-04-08T11:32:40.662Z,21.25
2018-04-08T11:33:40.683Z,20.37
2018-04-08T11:34:40.728Z,20.37
2018-04-08T11:35:40.747Z,20.47
2018-04-08T11:36:40.785Z,20.76
2018-04-08T11:37:40.810Z,20.96
2018-04-08T11:38:40.848Z,20.67
2018-04-08T11:39:40.877Z,19.90
2018-04-08T11:40:40.911Z,19.80
2018-04-08T11:41:40.945Z,20.59
2018-04-08T11:42:40.980Z,18.64
2018-04-08T11:43:41.010Z,18.74
2018-04-08T11:44:41.040Z,19.31
2018-04-08T11:45:41.070Z,18.82
2018-04-08T11:46:41.107Z,18.93
2018-04-08T11:47:41.145Z,18.74
2018-04-08T11:48:41.166Z,19.23
2018-04-08T11:49:41.208Z,19.02
2018-04-08T11:50:41.237Z,19.31
2018-04-08T11:51:41.270Z,18.99
2018-04-08T11:52:41.305Z,19.85
2018-04-08T11:53:41.339Z,20.90
2018-04-08T11:54:41.368Z,21.37
2018-04-08T11:55:41.399Z,21.86
2018-04-08T11:56:41.439Z,22.25
2018-04-08T11:57:41.467Z,22.25
2018-04-08T11:58:41.498Z,22.92
2018-04-08T11:59:41.533Z,23.61
2018-04-08T12:00:41.575Z,23.24
2018-04-08T12:01:41.599Z,22.26
2018-04-08T12:02:41.631Z,22.26
2018-04-08T12:03:41.660Z,22.36
2018-04-08T12:04:41.700Z,23.44
2018-04-08T12:05:41.723Z,22.76
2018-04-08T12:06:41.763Z,21.51
2018-04-08T12:07:41.795Z,21.32
2018-04-08T12:08:41.827Z,21.25
2018-04-08T12:09:41.854Z,20.87
2018-04-08T12:10:41.888Z,19.82
2018-04-08T12:11:41.918Z,19.34
2018-04-08T12:12:41.951Z,19.34
2018-04-08T12:13:41.978Z,19.43
2018-04-08T12:14:42.018Z,18.66
2018-04-08T12:15:42.044Z,18.48
2018-04-08T12:16:42.082Z,18.48
2018-04-08T12:17:42.108Z,18.19
2018-04-08T12:18:42.145Z,18.47
2018-04-08T12:19:42.175Z,17.50
2018-04-08T12:20:42.214Z,17.41
2018-04-08T12:21:42.248Z,17.41
2018-04-08T12:22:42.269Z,17.41
2018-04-08T12:23:42.309Z,17.79
2018-04-08T12:24:42.334Z,17.70
2018-04-08T12:25:42.373Z,17.70
2018-04-08T12:26:42.403Z,17.80
2018-04-08T12:27:42.442Z,17.61
2018-04-08T12:28:42.466Z,18.79
2018-04-08T12:29:42.501Z,18.66
2018-04-08T12:30:42.538Z,18.96
2018-04-08T12:31:42.568Z,18.87
2018-04-08T12:32:42.603Z,19.55
2018-04-08T12:33:42.634Z,18.87
2018-04-08T12:34:42.673Z,18.66
2018-04-08T12:35:42.698Z,19.26
2018-04-08T12:36:42.782Z,18.87
2018-04-08T12:37:42.763Z,18.58
2018-04-08T12:38:42.805Z,18.19
2018-04-08T12:39:42.836Z,18.38
2018-04-08T12:40:42.865Z,18.77
2018-04-08T12:41:42.903Z,18.49
2018-04-08T12:42:42.938Z,18.29
2018-04-08T12:43:42.973Z,18.09
2018-04-08T12:44:42.996Z,18.66
2018-04-08T12:45:43.031Z,19.34
2018-04-08T12:46:43.072Z,19.24
2018-04-08T12:47:43.105Z,19.06
2018-04-08T12:48:43.134Z,19.06
2018-04-08T12:49:43.167Z,18.77
2018-04-08T12:50:43.205Z,18.66
2018-04-08T12:51:43.261Z,19.34
2018-04-08T12:52:43.265Z,19.62